Terminal Aerodrome Forecast
Issued by NWS Sterling, VA

Current Version | Previous Version | Text Only | Print | Product List | Glossary Off
Versions: 1 2 3 4 5 6 7 8 9 10 11 12 13 14 15 16 17 18 19 20 21 22 23

065
FTUS41 KLWX 250540
TAFDCA
TAF
KDCA 250540Z 2506/2606 19010KT P6SM BKN050
     FM250900 17007KT P6SM SCT008 BKN025
     FM251500 18013G21KT P6SM BKN035
     FM251800 20014G24KT 4SM -SHRA VCTS OVC040CB
     FM252100 29017G28KT P6SM OVC040
     FM260000 29017G31KT P6SM BKN250
     FM260400 30017G32KT P6SM FEW040=

USA.gov is the U.S. government's official web portal to all federal, state and local government web resources and services.